sensor_id;sensor_type;location;lat;lon;timestamp;temperature;humidity
14705;DHT22;7442;50.840;3.396;2024-03-02T00:00:58;20.50;62.30
14705;DHT22;7442;50.840;3.396;2024-03-02T00:03:28;20.50;62.40
14705;DHT22;7442;50.840;3.396;2024-03-02T00:05:58;20.50;62.30
14705;DHT22;7442;50.840;3.396;2024-03-02T00:08:28;20.60;62.30
14705;DHT22;7442;50.840;3.396;2024-03-02T00:11:00;20.50;62.20
14705;DHT22;7442;50.840;3.396;2024-03-02T00:13:31;20.60;62.20
14705;DHT22;7442;50.840;3.396;2024-03-02T00:16:02;20.60;62.10
14705;DHT22;7442;50.840;3.396;2024-03-02T00:18:35;20.60;62.10
14705;DHT22;7442;50.840;3.396;2024-03-02T00:21:06;20.50;59.80
14705;DHT22;7442;50.840;3.396;2024-03-02T00:23:39;20.50;61.00
14705;DHT22;7442;50.840;3.396;2024-03-02T00:26:11;20.20;57.40
14705;DHT22;7442;50.840;3.396;2024-03-02T00:28:42;20.30;59.50
14705;DHT22;7442;50.840;3.396;2024-03-02T00:31:14;20.40;59.30
14705;DHT22;7442;50.840;3.396;2024-03-02T00:33:47;20.50;59.10
14705;DHT22;7442;50.840;3.396;2024-03-02T00:36:22;20.50;59.60
14705;DHT22;7442;50.840;3.396;2024-03-02T00:38:55;20.50;59.40
14705;DHT22;7442;50.840;3.396;2024-03-02T00:41:30;20.50;59.30
14705;DHT22;7442;50.840;3.396;2024-03-02T00:44:04;20.50;59.20
14705;DHT22;7442;50.840;3.396;2024-03-02T00:46:39;20.60;59.20
14705;DHT22;7442;50.840;3.396;2024-03-02T00:51:51;20.50;59.00
14705;DHT22;7442;50.840;3.396;2024-03-02T00:54:28;20.60;59.00
14705;DHT22;7442;50.840;3.396;2024-03-02T00:56:59;20.60;58.90
14705;DHT22;7442;50.840;3.396;2024-03-02T00:59:30;20.60;58.90
14705;DHT22;7442;50.840;3.396;2024-03-02T01:02:00;20.60;58.80
14705;DHT22;7442;50.840;3.396;2024-03-02T01:04:30;20.50;58.60
14705;DHT22;7442;50.840;3.396;2024-03-02T01:07:00;20.50;58.50
14705;DHT22;7442;50.840;3.396;2024-03-02T01:09:30;20.60;58.40
14705;DHT22;7442;50.840;3.396;2024-03-02T01:12:00;20.60;58.50
14705;DHT22;7442;50.840;3.396;2024-03-02T01:14:30;20.50;58.50
14705;DHT22;7442;50.840;3.396;2024-03-02T01:17:01;20.60;58.40
14705;DHT22;7442;50.840;3.396;2024-03-02T01:19:41;20.60;58.30
14705;DHT22;7442;50.840;3.396;2024-03-02T01:22:11;20.50;58.30
14705;DHT22;7442;50.840;3.396;2024-03-02T01:24:42;20.50;58.10
14705;DHT22;7442;50.840;3.396;2024-03-02T01:27:12;20.60;58.10
14705;DHT22;7442;50.840;3.396;2024-03-02T01:29:43;20.60;58.00
14705;DHT22;7442;50.840;3.396;2024-03-02T01:32:13;20.60;58.00
14705;DHT22;7442;50.840;3.396;2024-03-02T01:34:43;20.60;57.90
14705;DHT22;7442;50.840;3.396;2024-03-02T01:37:13;20.50;57.80
14705;DHT22;7442;50.840;3.396;2024-03-02T01:39:47;20.60;57.90
14705;DHT22;7442;50.840;3.396;2024-03-02T01:42:17;20.50;57.70
14705;DHT22;7442;50.840;3.396;2024-03-02T01:44:47;20.60;57.80
14705;DHT22;7442;50.840;3.396;2024-03-02T01:47:18;20.50;57.40
14705;DHT22;7442;50.840;3.396;2024-03-02T01:49:48;20.60;57.60
14705;DHT22;7442;50.840;3.396;2024-03-02T01:52:18;20.60;57.50
14705;DHT22;7442;50.840;3.396;2024-03-02T01:54:49;20.50;57.40
14705;DHT22;7442;50.840;3.396;2024-03-02T01:57:19;20.50;57.20
14705;DHT22;7442;50.840;3.396;2024-03-02T01:59:49;20.60;57.40
14705;DHT22;7442;50.840;3.396;2024-03-02T02:02:20;20.60;57.30
14705;DHT22;7442;50.840;3.396;2024-03-02T02:04:52;20.50;57.20
14705;DHT22;7442;50.840;3.396;2024-03-02T02:07:22;20.50;57.20
14705;DHT22;7442;50.840;3.396;2024-03-02T02:09:52;20.50;57.10
14705;DHT22;7442;50.840;3.396;2024-03-02T02:12:22;20.50;57.10
14705;DHT22;7442;50.840;3.396;2024-03-02T02:14:52;20.50;57.00
14705;DHT22;7442;50.840;3.396;2024-03-02T02:17:22;20.50;56.90
14705;DHT22;7442;50.840;3.396;2024-03-02T02:19:52;20.50;56.80
14705;DHT22;7442;50.840;3.396;2024-03-02T02:22:22;20.50;56.90
14705;DHT22;7442;50.840;3.396;2024-03-02T02:24:52;20.50;56.80
14705;DHT22;7442;50.840;3.396;2024-03-02T02:27:22;20.50;56.80
14705;DHT22;7442;50.840;3.396;2024-03-02T02:29:52;20.50;56.70
14705;DHT22;7442;50.840;3.396;2024-03-02T02:32:22;20.50;56.70
14705;DHT22;7442;50.840;3.396;2024-03-02T02:34:52;20.50;56.60
14705;DHT22;7442;50.840;3.396;2024-03-02T02:37:23;20.50;56.60
14705;DHT22;7442;50.840;3.396;2024-03-02T02:39:53;20.50;56.50
14705;DHT22;7442;50.840;3.396;2024-03-02T02:42:23;20.50;56.50
14705;DHT22;7442;50.840;3.396;2024-03-02T02:44:53;20.50;56.30
14705;DHT22;7442;50.840;3.396;2024-03-02T02:47:23;20.50;56.30
14705;DHT22;7442;50.840;3.396;2024-03-02T02:49:53;20.50;56.20
14705;DHT22;7442;50.840;3.396;2024-03-02T02:52:23;20.50;56.10
14705;DHT22;7442;50.840;3.396;2024-03-02T02:54:53;20.50;56.20
14705;DHT22;7442;50.840;3.396;2024-03-02T02:57:23;20.50;56.10
14705;DHT22;7442;50.840;3.396;2024-03-02T02:59:53;20.50;56.10
14705;DHT22;7442;50.840;3.396;2024-03-02T03:02:23;20.50;55.90
14705;DHT22;7442;50.840;3.396;2024-03-02T03:04:53;20.50;56.10
14705;DHT22;7442;50.840;3.396;2024-03-02T03:07:23;20.50;56.00
14705;DHT22;7442;50.840;3.396;2024-03-02T03:09:53;20.50;56.00
14705;DHT22;7442;50.840;3.396;2024-03-02T03:12:23;20.50;56.40
14705;DHT22;7442;50.840;3.396;2024-03-02T03:14:53;20.50;55.90
14705;DHT22;7442;50.840;3.396;2024-03-02T03:17:25;20.50;55.90
14705;DHT22;7442;50.840;3.396;2024-03-02T03:19:56;20.50;55.70
14705;DHT22;7442;50.840;3.396;2024-03-02T03:22:26;20.50;55.80
14705;DHT22;7442;50.840;3.396;2024-03-02T03:24:56;20.50;55.70
14705;DHT22;7442;50.840;3.396;2024-03-02T03:27:26;20.50;55.70
14705;DHT22;7442;50.840;3.396;2024-03-02T03:29:56;20.50;55.60
14705;DHT22;7442;50.840;3.396;2024-03-02T03:32:26;20.50;55.70
14705;DHT22;7442;50.840;3.396;2024-03-02T03:34:57;20.50;55.70
14705;DHT22;7442;50.840;3.396;2024-03-02T03:37:27;20.50;55.70
14705;DHT22;7442;50.840;3.396;2024-03-02T03:39:59;20.50;55.50
14705;DHT22;7442;50.840;3.396;2024-03-02T03:42:29;20.50;55.50
14705;DHT22;7442;50.840;3.396;2024-03-02T03:44:59;20.50;55.40
14705;DHT22;7442;50.840;3.396;2024-03-02T03:47:31;20.50;55.30
14705;DHT22;7442;50.840;3.396;2024-03-02T03:50:01;20.60;55.40
14705;DHT22;7442;50.840;3.396;2024-03-02T03:52:33;20.60;55.40
14705;DHT22;7442;50.840;3.396;2024-03-02T03:55:03;20.50;55.30
14705;DHT22;7442;50.840;3.396;2024-03-02T03:57:34;20.50;55.30
14705;DHT22;7442;50.840;3.396;2024-03-02T04:00:05;20.50;55.20
14705;DHT22;7442;50.840;3.396;2024-03-02T04:02:36;20.50;55.20
14705;DHT22;7442;50.840;3.396;2024-03-02T04:05:06;20.60;55.20
14705;DHT22;7442;50.840;3.396;2024-03-02T04:07:37;20.60;55.20
14705;DHT22;7442;50.840;3.396;2024-03-02T04:10:10;20.60;55.20
14705;DHT22;7442;50.840;3.396;2024-03-02T04:12:41;20.60;55.10
14705;DHT22;7442;50.840;3.396;2024-03-02T04:15:11;20.60;55.00
14705;DHT22;7442;50.840;3.396;2024-03-02T04:17:42;20.60;54.90
14705;DHT22;7442;50.840;3.396;2024-03-02T04:20:12;20.60;55.40
14705;DHT22;7442;50.840;3.396;2024-03-02T04:22:42;20.60;54.90
14705;DHT22;7442;50.840;3.396;2024-03-02T04:25:12;20.60;54.80
14705;DHT22;7442;50.840;3.396;2024-03-02T04:27:42;20.60;54.90
14705;DHT22;7442;50.840;3.396;2024-03-02T04:30:15;20.60;54.90
14705;DHT22;7442;50.840;3.396;2024-03-02T04:35:11;20.60;54.80
14705;DHT22;7442;50.840;3.396;2024-03-02T04:37:44;20.60;54.80
14705;DHT22;7442;50.840;3.396;2024-03-02T04:40:15;20.60;54.80
14705;DHT22;7442;50.840;3.396;2024-03-02T04:42:45;20.60;54.70
14705;DHT22;7442;50.840;3.396;2024-03-02T04:45:15;20.60;54.70
14705;DHT22;7442;50.840;3.396;2024-03-02T04:47:45;20.60;54.70
14705;DHT22;7442;50.840;3.396;2024-03-02T04:50:15;20.60;54.60
14705;DHT22;7442;50.840;3.396;2024-03-02T04:52:45;20.60;54.60
14705;DHT22;7442;50.840;3.396;2024-03-02T04:55:15;20.60;54.60
14705;DHT22;7442;50.840;3.396;2024-03-02T04:57:47;20.60;54.50
14705;DHT22;7442;50.840;3.396;2024-03-02T05:00:17;20.60;54.50
14705;DHT22;7442;50.840;3.396;2024-03-02T05:02:47;20.60;54.40
14705;DHT22;7442;50.840;3.396;2024-03-02T05:05:17;20.60;54.40
14705;DHT22;7442;50.840;3.396;2024-03-02T05:07:47;20.70;54.40
14705;DHT22;7442;50.840;3.396;2024-03-02T05:10:17;20.70;54.40
14705;DHT22;7442;50.840;3.396;2024-03-02T05:12:47;20.70;54.40
14705;DHT22;7442;50.840;3.396;2024-03-02T05:15:28;20.70;54.50
14705;DHT22;7442;50.840;3.396;2024-03-02T05:17:57;20.70;54.40
14705;DHT22;7442;50.840;3.396;2024-03-02T05:20:28;20.70;54.90
14705;DHT22;7442;50.840;3.396;2024-03-02T05:22:58;20.70;54.20
14705;DHT22;7442;50.840;3.396;2024-03-02T05:25:28;20.70;54.20
14705;DHT22;7442;50.840;3.396;2024-03-02T05:27:58;20.70;54.20
14705;DHT22;7442;50.840;3.396;2024-03-02T05:30:28;20.70;54.20
14705;DHT22;7442;50.840;3.396;2024-03-02T05:32:58;20.70;54.20
14705;DHT22;7442;50.840;3.396;2024-03-02T05:35:28;20.70;54.20
14705;DHT22;7442;50.840;3.396;2024-03-02T05:37:58;20.70;54.10
14705;DHT22;7442;50.840;3.396;2024-03-02T05:40:28;20.70;54.10
14705;DHT22;7442;50.840;3.396;2024-03-02T05:42:59;20.70;54.10
14705;DHT22;7442;50.840;3.396;2024-03-02T05:45:34;20.70;54.00
14705;DHT22;7442;50.840;3.396;2024-03-02T05:48:12;20.70;54.10
14705;DHT22;7442;50.840;3.396;2024-03-02T05:50:38;20.70;54.00
14705;DHT22;7442;50.840;3.396;2024-03-02T05:53:10;20.70;53.90
14705;DHT22;7442;50.840;3.396;2024-03-02T05:55:40;20.70;53.90
14705;DHT22;7442;50.840;3.396;2024-03-02T05:58:10;20.80;54.00
14705;DHT22;7442;50.840;3.396;2024-03-02T06:00:48;20.80;53.90
14705;DHT22;7442;50.840;3.396;2024-03-02T06:03:18;20.70;53.90
14705;DHT22;7442;50.840;3.396;2024-03-02T06:05:48;20.80;54.60
14705;DHT22;7442;50.840;3.396;2024-03-02T06:08:18;20.70;53.80
14705;DHT22;7442;50.840;3.396;2024-03-02T06:10:48;20.80;54.50
14705;DHT22;7442;50.840;3.396;2024-03-02T06:13:18;20.80;53.80
14705;DHT22;7442;50.840;3.396;2024-03-02T06:15:48;20.80;53.90
14705;DHT22;7442;50.840;3.396;2024-03-02T06:18:18;20.80;53.80
14705;DHT22;7442;50.840;3.396;2024-03-02T06:20:48;20.80;53.80
14705;DHT22;7442;50.840;3.396;2024-03-02T06:23:18;20.80;54.30
14705;DHT22;7442;50.840;3.396;2024-03-02T06:25:49;20.80;53.70
14705;DHT22;7442;50.840;3.396;2024-03-02T06:28:19;20.80;53.60
14705;DHT22;7442;50.840;3.396;2024-03-02T06:30:49;20.80;53.60
14705;DHT22;7442;50.840;3.396;2024-03-02T06:33:19;20.80;53.60
14705;DHT22;7442;50.840;3.396;2024-03-02T06:35:49;20.80;53.60
14705;DHT22;7442;50.840;3.396;2024-03-02T06:38:19;20.80;53.50
14705;DHT22;7442;50.840;3.396;2024-03-02T06:40:49;20.80;53.50
14705;DHT22;7442;50.840;3.396;2024-03-02T06:43:19;20.80;54.10
14705;DHT22;7442;50.840;3.396;2024-03-02T06:45:52;20.90;54.10
14705;DHT22;7442;50.840;3.396;2024-03-02T06:48:22;20.90;53.40
14705;DHT22;7442;50.840;3.396;2024-03-02T06:50:53;20.90;53.40
14705;DHT22;7442;50.840;3.396;2024-03-02T06:53:24;20.90;53.30
14705;DHT22;7442;50.840;3.396;2024-03-02T06:55:54;20.90;53.20
14705;DHT22;7442;50.840;3.396;2024-03-02T06:58:24;21.00;53.30
14705;DHT22;7442;50.840;3.396;2024-03-02T07:00:54;21.00;53.30
14705;DHT22;7442;50.840;3.396;2024-03-02T07:03:24;20.90;53.10
14705;DHT22;7442;50.840;3.396;2024-03-02T07:05:54;21.00;53.10
14705;DHT22;7442;50.840;3.396;2024-03-02T07:08:24;21.00;53.10
14705;DHT22;7442;50.840;3.396;2024-03-02T07:10:55;21.00;53.00
14705;DHT22;7442;50.840;3.396;2024-03-02T07:13:26;21.00;53.00
14705;DHT22;7442;50.840;3.396;2024-03-02T07:15:56;21.00;53.00
14705;DHT22;7442;50.840;3.396;2024-03-02T07:18:28;21.10;52.80
14705;DHT22;7442;50.840;3.396;2024-03-02T07:20:58;21.10;52.80
14705;DHT22;7442;50.840;3.396;2024-03-02T07:23:31;21.10;52.80
14705;DHT22;7442;50.840;3.396;2024-03-02T07:26:01;21.10;52.80
14705;DHT22;7442;50.840;3.396;2024-03-02T07:28:32;21.10;52.80
14705;DHT22;7442;50.840;3.396;2024-03-02T07:31:03;21.10;52.70
14705;DHT22;7442;50.840;3.396;2024-03-02T07:33:34;21.10;52.60
14705;DHT22;7442;50.840;3.396;2024-03-02T07:36:04;21.20;53.20
14705;DHT22;7442;50.840;3.396;2024-03-02T07:38:34;21.20;52.60
14705;DHT22;7442;50.840;3.396;2024-03-02T07:41:05;21.20;52.40
14705;DHT22;7442;50.840;3.396;2024-03-02T07:43:35;21.20;52.40
14705;DHT22;7442;50.840;3.396;2024-03-02T07:46:05;21.20;52.40
14705;DHT22;7442;50.840;3.396;2024-03-02T07:48:36;21.30;52.90
14705;DHT22;7442;50.840;3.396;2024-03-02T07:51:06;21.20;52.40
14705;DHT22;7442;50.840;3.396;2024-03-02T07:53:36;21.30;52.20
14705;DHT22;7442;50.840;3.396;2024-03-02T07:56:06;21.20;52.20
14705;DHT22;7442;50.840;3.396;2024-03-02T07:58:36;21.30;52.30
14705;DHT22;7442;50.840;3.396;2024-03-02T08:01:06;21.30;52.40
14705;DHT22;7442;50.840;3.396;2024-03-02T08:03:38;21.30;52.90
14705;DHT22;7442;50.840;3.396;2024-03-02T08:06:07;21.30;52.10
14705;DHT22;7442;50.840;3.396;2024-03-02T08:08:38;21.30;52.90
14705;DHT22;7442;50.840;3.396;2024-03-02T08:11:08;21.30;52.10
14705;DHT22;7442;50.840;3.396;2024-03-02T08:13:39;21.40;52.10
14705;DHT22;7442;50.840;3.396;2024-03-02T08:16:09;21.40;52.20
14705;DHT22;7442;50.840;3.396;2024-03-02T08:18:39;21.30;52.50
14705;DHT22;7442;50.840;3.396;2024-03-02T08:21:09;21.40;52.30
14705;DHT22;7442;50.840;3.396;2024-03-02T08:23:39;21.50;52.20
14705;DHT22;7442;50.840;3.396;2024-03-02T08:26:11;21.60;52.10
14705;DHT22;7442;50.840;3.396;2024-03-02T08:28:43;21.60;51.90
14705;DHT22;7442;50.840;3.396;2024-03-02T08:31:13;21.70;52.30
14705;DHT22;7442;50.840;3.396;2024-03-02T08:33:43;21.80;51.80
14705;DHT22;7442;50.840;3.396;2024-03-02T08:36:13;21.70;52.00
14705;DHT22;7442;50.840;3.396;2024-03-02T08:38:44;21.70;52.10
14705;DHT22;7442;50.840;3.396;2024-03-02T08:41:14;21.70;52.20
14705;DHT22;7442;50.840;3.396;2024-03-02T08:43:46;21.70;52.30
14705;DHT22;7442;50.840;3.396;2024-03-02T08:46:17;21.70;52.20
14705;DHT22;7442;50.840;3.396;2024-03-02T08:48:47;21.70;52.30
14705;DHT22;7442;50.840;3.396;2024-03-02T08:51:17;21.70;52.20
14705;DHT22;7442;50.840;3.396;2024-03-02T08:53:47;21.70;52.40
14705;DHT22;7442;50.840;3.396;2024-03-02T08:56:17;21.70;52.40
14705;DHT22;7442;50.840;3.396;2024-03-02T08:58:47;21.70;52.30
14705;DHT22;7442;50.840;3.396;2024-03-02T09:01:17;21.70;52.40
14705;DHT22;7442;50.840;3.396;2024-03-02T09:03:48;21.80;52.40
14705;DHT22;7442;50.840;3.396;2024-03-02T09:06:18;22.00;52.30
14705;DHT22;7442;50.840;3.396;2024-03-02T09:08:51;21.90;52.20
14705;DHT22;7442;50.840;3.396;2024-03-02T09:11:21;21.80;52.40
14705;DHT22;7442;50.840;3.396;2024-03-02T09:13:51;21.70;52.50
14705;DHT22;7442;50.840;3.396;2024-03-02T09:16:25;21.70;52.60
14705;DHT22;7442;50.840;3.396;2024-03-02T09:18:57;21.70;52.70
14705;DHT22;7442;50.840;3.396;2024-03-02T09:21:27;21.70;52.70
14705;DHT22;7442;50.840;3.396;2024-03-02T09:24:01;21.70;52.90
14705;DHT22;7442;50.840;3.396;2024-03-02T09:26:32;21.80;52.90
14705;DHT22;7442;50.840;3.396;2024-03-02T09:29:02;21.90;52.80
14705;DHT22;7442;50.840;3.396;2024-03-02T09:31:32;22.00;52.60
14705;DHT22;7442;50.840;3.396;2024-03-02T09:34:00;22.10;52.50
14705;DHT22;7442;50.840;3.396;2024-03-02T09:36:27;22.00;52.50
14705;DHT22;7442;50.840;3.396;2024-03-02T09:38:55;22.20;52.70
14705;DHT22;7442;50.840;3.396;2024-03-02T09:41:23;22.40;52.30
14705;DHT22;7442;50.840;3.396;2024-03-02T09:43:54;22.50;51.80
14705;DHT22;7442;50.840;3.396;2024-03-02T09:46:25;22.50;51.80
14705;DHT22;7442;50.840;3.396;2024-03-02T09:48:55;22.40;51.80
14705;DHT22;7442;50.840;3.396;2024-03-02T09:51:26;22.40;51.90
14705;DHT22;7442;50.840;3.396;2024-03-02T09:53:56;22.40;51.70
14705;DHT22;7442;50.840;3.396;2024-03-02T09:56:26;22.40;51.60
14705;DHT22;7442;50.840;3.396;2024-03-02T09:58:56;22.40;51.60
14705;DHT22;7442;50.840;3.396;2024-03-02T10:01:28;22.50;51.40
14705;DHT22;7442;50.840;3.396;2024-03-02T10:04:01;22.60;51.30
14705;DHT22;7442;50.840;3.396;2024-03-02T10:06:33;22.60;51.30
14705;DHT22;7442;50.840;3.396;2024-03-02T10:09:03;22.60;51.30
14705;DHT22;7442;50.840;3.396;2024-03-02T10:11:34;22.60;51.20
14705;DHT22;7442;50.840;3.396;2024-03-02T10:14:11;22.70;51.20
14705;DHT22;7442;50.840;3.396;2024-03-02T10:16:44;22.70;51.10
14705;DHT22;7442;50.840;3.396;2024-03-02T10:19:20;22.70;51.10
14705;DHT22;7442;50.840;3.396;2024-03-02T10:21:53;22.60;51.70
14705;DHT22;7442;50.840;3.396;2024-03-02T10:24:23;22.70;51.20
14705;DHT22;7442;50.840;3.396;2024-03-02T10:26:55;22.60;51.30
14705;DHT22;7442;50.840;3.396;2024-03-02T10:29:29;22.60;51.20
14705;DHT22;7442;50.840;3.396;2024-03-02T10:32:01;22.60;51.20
14705;DHT22;7442;50.840;3.396;2024-03-02T10:34:32;22.60;51.30
14705;DHT22;7442;50.840;3.396;2024-03-02T10:37:02;22.60;51.30
14705;DHT22;7442;50.840;3.396;2024-03-02T10:39:34;22.60;51.30
14705;DHT22;7442;50.840;3.396;2024-03-02T10:42:09;22.60;51.40
14705;DHT22;7442;50.840;3.396;2024-03-02T10:44:39;22.50;51.40
14705;DHT22;7442;50.840;3.396;2024-03-02T10:47:12;22.60;51.40
14705;DHT22;7442;50.840;3.396;2024-03-02T10:49:42;22.50;51.50
14705;DHT22;7442;50.840;3.396;2024-03-02T10:52:12;22.40;51.50
14705;DHT22;7442;50.840;3.396;2024-03-02T10:54:42;22.30;49.60
14705;DHT22;7442;50.840;3.396;2024-03-02T10:57:14;22.30;50.50
14705;DHT22;7442;50.840;3.396;2024-03-02T10:59:56;22.30;50.90
14705;DHT22;7442;50.840;3.396;2024-03-02T11:02:28;22.30;51.00
14705;DHT22;7442;50.840;3.396;2024-03-02T11:05:03;22.40;51.00
14705;DHT22;7442;50.840;3.396;2024-03-02T11:07:39;22.40;50.90
14705;DHT22;7442;50.840;3.396;2024-03-02T11:10:09;22.40;51.00
14705;DHT22;7442;50.840;3.396;2024-03-02T11:12:48;22.30;51.00
14705;DHT22;7442;50.840;3.396;2024-03-02T11:15:18;22.30;51.00
14705;DHT22;7442;50.840;3.396;2024-03-02T11:17:49;22.30;51.00
14705;DHT22;7442;50.840;3.396;2024-03-02T11:20:20;22.30;51.20
14705;DHT22;7442;50.840;3.396;2024-03-02T11:22:51;22.20;51.20
14705;DHT22;7442;50.840;3.396;2024-03-02T11:25:25;22.30;51.20
14705;DHT22;7442;50.840;3.396;2024-03-02T11:28:01;22.30;51.20
14705;DHT22;7442;50.840;3.396;2024-03-02T11:33:08;22.30;51.00
14705;DHT22;7442;50.840;3.396;2024-03-02T11:35:42;22.20;50.90
14705;DHT22;7442;50.840;3.396;2024-03-02T11:38:12;22.20;51.00
14705;DHT22;7442;50.840;3.396;2024-03-02T11:40:43;22.20;50.90
14705;DHT22;7442;50.840;3.396;2024-03-02T11:43:13;22.20;51.10
14705;DHT22;7442;50.840;3.396;2024-03-02T11:45:43;22.20;51.10
14705;DHT22;7442;50.840;3.396;2024-03-02T11:48:17;22.20;51.80
14705;DHT22;7442;50.840;3.396;2024-03-02T11:50:50;22.20;51.10
14705;DHT22;7442;50.840;3.396;2024-03-02T11:53:20;22.20;50.90
14705;DHT22;7442;50.840;3.396;2024-03-02T11:55:53;22.20;51.00
14705;DHT22;7442;50.840;3.396;2024-03-02T11:58:25;22.20;51.10
14705;DHT22;7442;50.840;3.396;2024-03-02T12:00:57;22.20;51.90
14705;DHT22;7442;50.840;3.396;2024-03-02T12:03:28;22.20;51.20
14705;DHT22;7442;50.840;3.396;2024-03-02T12:05:59;22.20;51.20
14705;DHT22;7442;50.840;3.396;2024-03-02T12:08:29;22.10;51.20
14705;DHT22;7442;50.840;3.396;2024-03-02T12:11:02;22.10;51.30
14705;DHT22;7442;50.840;3.396;2024-03-02T12:13:33;22.10;51.30
14705;DHT22;7442;50.840;3.396;2024-03-02T12:16:04;22.10;51.40
14705;DHT22;7442;50.840;3.396;2024-03-02T12:18:34;22.10;51.50
14705;DHT22;7442;50.840;3.396;2024-03-02T12:21:05;22.00;51.40
14705;DHT22;7442;50.840;3.396;2024-03-02T12:23:36;22.00;51.40
14705;DHT22;7442;50.840;3.396;2024-03-02T12:26:07;22.00;52.20
14705;DHT22;7442;50.840;3.396;2024-03-02T12:28:37;22.00;51.50
14705;DHT22;7442;50.840;3.396;2024-03-02T12:31:08;22.00;51.50
14705;DHT22;7442;50.840;3.396;2024-03-02T12:33:38;22.00;51.50
14705;DHT22;7442;50.840;3.396;2024-03-02T12:36:14;22.00;51.70
14705;DHT22;7442;50.840;3.396;2024-03-02T12:38:44;22.00;51.60
14705;DHT22;7442;50.840;3.396;2024-03-02T12:41:16;22.00;51.60
14705;DHT22;7442;50.840;3.396;2024-03-02T12:43:46;22.00;51.80
14705;DHT22;7442;50.840;3.396;2024-03-02T12:46:16;21.90;51.70
14705;DHT22;7442;50.840;3.396;2024-03-02T12:48:51;22.00;51.70
14705;DHT22;7442;50.840;3.396;2024-03-02T12:51:21;21.90;51.70
14705;DHT22;7442;50.840;3.396;2024-03-02T12:53:55;21.90;51.90
14705;DHT22;7442;50.840;3.396;2024-03-02T12:58:44;21.90;51.80
14705;DHT22;7442;50.840;3.396;2024-03-02T13:01:15;21.90;51.80
14705;DHT22;7442;50.840;3.396;2024-03-02T13:03:49;21.90;51.80
14705;DHT22;7442;50.840;3.396;2024-03-02T13:06:20;21.90;51.90
14705;DHT22;7442;50.840;3.396;2024-03-02T13:08:51;21.90;52.00
14705;DHT22;7442;50.840;3.396;2024-03-02T13:11:24;21.90;51.80
14705;DHT22;7442;50.840;3.396;2024-03-02T13:13:55;21.90;51.70
14705;DHT22;7442;50.840;3.396;2024-03-02T13:16:25;21.90;51.70
14705;DHT22;7442;50.840;3.396;2024-03-02T13:18:56;21.90;51.70
14705;DHT22;7442;50.840;3.396;2024-03-02T13:21:26;21.90;51.70
14705;DHT22;7442;50.840;3.396;2024-03-02T13:23:56;21.90;51.70
14705;DHT22;7442;50.840;3.396;2024-03-02T13:26:27;21.90;51.70
14705;DHT22;7442;50.840;3.396;2024-03-02T13:28:57;21.90;51.50
14705;DHT22;7442;50.840;3.396;2024-03-02T13:31:27;22.00;51.60
14705;DHT22;7442;50.840;3.396;2024-03-02T13:33:57;22.00;51.60
14705;DHT22;7442;50.840;3.396;2024-03-02T13:36:27;22.00;51.70
14705;DHT22;7442;50.840;3.396;2024-03-02T13:38:57;22.00;51.50
14705;DHT22;7442;50.840;3.396;2024-03-02T13:41:27;22.00;51.70
14705;DHT22;7442;50.840;3.396;2024-03-02T13:43:57;22.00;51.90
14705;DHT22;7442;50.840;3.396;2024-03-02T13:46:29;22.20;51.50
14705;DHT22;7442;50.840;3.396;2024-03-02T13:48:59;22.40;51.30
14705;DHT22;7442;50.840;3.396;2024-03-02T13:51:30;22.40;51.20
14705;DHT22;7442;50.840;3.396;2024-03-02T13:54:02;22.50;51.10
14705;DHT22;7442;50.840;3.396;2024-03-02T13:56:32;22.50;51.00
14705;DHT22;7442;50.840;3.396;2024-03-02T13:59:02;22.50;51.00
14705;DHT22;7442;50.840;3.396;2024-03-02T14:01:32;22.50;51.00
14705;DHT22;7442;50.840;3.396;2024-03-02T14:04:03;22.50;51.10
14705;DHT22;7442;50.840;3.396;2024-03-02T14:06:33;22.40;51.40
14705;DHT22;7442;50.840;3.396;2024-03-02T14:09:03;22.50;51.40
14705;DHT22;7442;50.840;3.396;2024-03-02T14:11:33;22.50;51.30
14705;DHT22;7442;50.840;3.396;2024-03-02T14:14:19;22.50;51.30
14705;DHT22;7442;50.840;3.396;2024-03-02T14:17:06;22.50;51.30
14705;DHT22;7442;50.840;3.396;2024-03-02T14:19:53;22.50;51.70
14705;DHT22;7442;50.840;3.396;2024-03-02T14:22:40;22.50;51.50
14705;DHT22;7442;50.840;3.396;2024-03-02T14:25:26;22.50;51.70
14705;DHT22;7442;50.840;3.396;2024-03-02T14:28:14;22.60;51.60
14705;DHT22;7442;50.840;3.396;2024-03-02T14:31:01;22.70;51.40
14705;DHT22;7442;50.840;3.396;2024-03-02T14:33:48;22.80;51.00
14705;DHT22;7442;50.840;3.396;2024-03-02T14:36:34;22.80;51.10
14705;DHT22;7442;50.840;3.396;2024-03-02T14:39:21;22.80;51.10
14705;DHT22;7442;50.840;3.396;2024-03-02T14:42:08;22.80;51.10
14705;DHT22;7442;50.840;3.396;2024-03-02T14:44:54;22.90;51.00
14705;DHT22;7442;50.840;3.396;2024-03-02T14:47:40;22.90;50.90
14705;DHT22;7442;50.840;3.396;2024-03-02T14:50:09;23.30;50.20
14705;DHT22;7442;50.840;3.396;2024-03-02T14:52:39;23.60;49.60
14705;DHT22;7442;50.840;3.396;2024-03-02T14:55:09;23.70;49.30
14705;DHT22;7442;50.840;3.396;2024-03-02T14:57:40;23.80;49.20
14705;DHT22;7442;50.840;3.396;2024-03-02T15:00:11;23.80;49.80
14705;DHT22;7442;50.840;3.396;2024-03-02T15:02:41;23.80;49.10
14705;DHT22;7442;50.840;3.396;2024-03-02T15:05:11;23.80;49.00
14705;DHT22;7442;50.840;3.396;2024-03-02T15:07:41;23.90;49.00
14705;DHT22;7442;50.840;3.396;2024-03-02T15:10:11;23.90;48.90
14705;DHT22;7442;50.840;3.396;2024-03-02T15:12:41;23.90;48.90
14705;DHT22;7442;50.840;3.396;2024-03-02T15:15:12;23.90;48.90
14705;DHT22;7442;50.840;3.396;2024-03-02T15:17:42;24.00;48.80
14705;DHT22;7442;50.840;3.396;2024-03-02T15:20:13;24.00;48.70
14705;DHT22;7442;50.840;3.396;2024-03-02T15:22:43;23.90;48.70
14705;DHT22;7442;50.840;3.396;2024-03-02T15:25:13;23.90;48.80
14705;DHT22;7442;50.840;3.396;2024-03-02T15:27:45;24.00;48.70
14705;DHT22;7442;50.840;3.396;2024-03-02T15:30:15;24.00;48.70
14705;DHT22;7442;50.840;3.396;2024-03-02T15:32:45;24.00;48.80
14705;DHT22;7442;50.840;3.396;2024-03-02T15:35:15;23.90;48.80
14705;DHT22;7442;50.840;3.396;2024-03-02T15:37:45;24.00;48.80
14705;DHT22;7442;50.840;3.396;2024-03-02T15:40:15;24.00;48.80
14705;DHT22;7442;50.840;3.396;2024-03-02T15:42:45;23.90;48.80
14705;DHT22;7442;50.840;3.396;2024-03-02T15:45:15;23.90;48.80
14705;DHT22;7442;50.840;3.396;2024-03-02T15:47:45;23.90;48.90
14705;DHT22;7442;50.840;3.396;2024-03-02T15:50:15;23.70;49.10
14705;DHT22;7442;50.840;3.396;2024-03-02T15:52:45;23.70;49.30
14705;DHT22;7442;50.840;3.396;2024-03-02T15:55:15;23.70;49.50
14705;DHT22;7442;50.840;3.396;2024-03-02T15:57:46;23.80;49.50
14705;DHT22;7442;50.840;3.396;2024-03-02T16:00:16;23.80;49.40
14705;DHT22;7442;50.840;3.396;2024-03-02T16:02:46;23.80;49.20
14705;DHT22;7442;50.840;3.396;2024-03-02T16:05:16;23.70;49.20
14705;DHT22;7442;50.840;3.396;2024-03-02T16:07:47;23.60;49.40
14705;DHT22;7442;50.840;3.396;2024-03-02T16:10:17;23.60;49.60
14705;DHT22;7442;50.840;3.396;2024-03-02T16:12:49;23.50;49.70
14705;DHT22;7442;50.840;3.396;2024-03-02T16:15:20;23.40;49.80
14705;DHT22;7442;50.840;3.396;2024-03-02T16:17:50;23.40;50.00
14705;DHT22;7442;50.840;3.396;2024-03-02T16:20:21;23.30;50.10